Time;durP1;ratioP1;P1;durP2;ratioP2;P2;SDS_P1;SDS_P2;PMS_P1;PMS_P2;Temp;Humidity;BMP_temperature;BMP_pressure;BME280_temperature;BME280_humidity;BME280_pressure;Samples;Min_cycle;Max_cycle;Signal;HPM_P1;HPM_P2
2023/07/12 00:01:10;;;;;;;5.70;5.40;;;;;;;21.37;86.25;100192.47;6116559;23;20105;-67
2023/07/12 00:03:37;;;;;;;6.28;5.75;;;;;;;21.42;86.18;100206.16;6079518;23;20042;-66
2023/07/12 00:06:11;;;;;;;6.03;5.72;;;;;;;21.36;86.00;100195.28;6112094;23;20476;-66
2023/07/12 00:08:40;;;;;;;6.10;5.75;;;;;;;21.38;86.34;100188.78;6082987;23;20056;-66
2023/07/12 00:11:15;;;;;;;6.05;5.70;;;;;;;21.14;85.87;100140.69;6111589;23;20021;-67
2023/07/12 00:13:41;;;;;;;5.60;5.30;;;;;;;21.35;85.80;100165.09;6081346;23;20084;-67
2023/07/12 00:16:29;;;;;;;5.90;5.60;;;;;;;21.33;85.87;100177.78;6107374;23;20025;-67
2023/07/12 00:18:56;;;;;;;6.20;5.85;;;;;;;21.01;86.04;100152.66;6077809;23;20002;-67
2023/07/12 00:21:26;;;;;;;5.82;5.53;;;;;;;21.29;85.61;100193.28;6111673;23;20565;-66
2023/07/12 00:23:54;;;;;;;5.93;5.63;;;;;;;21.34;85.83;100192.78;6087345;23;21502;-66
2023/07/12 00:26:32;;;;;;;5.80;5.50;;;;;;;21.10;85.10;100141.00;6105871;23;20038;-65
2023/07/12 00:29:01;;;;;;;6.10;5.70;;;;;;;21.42;84.11;100182.13;6081296;23;20032;-66
2023/07/12 00:31:31;;;;;;;5.72;5.43;;;;;;;19.63;84.27;99908.47;6114283;23;20077;-67
2023/07/12 00:33:58;;;;;;;5.78;5.47;;;;;;;21.54;83.70;100187.19;6116786;23;20573;-66
2023/07/12 00:36:28;;;;;;;10.70;5.72;;;;;;;21.56;82.96;100175.34;6111091;23;20048;-66
2023/07/12 00:38:56;;;;;;;5.97;5.68;;;;;;;21.58;83.30;100199.22;6107771;23;20021;-66
2023/07/12 00:41:37;;;;;;;5.75;5.40;;;;;;;21.60;83.15;100200.72;6114396;23;20428;-66
2023/07/12 00:44:16;;;;;;;5.80;5.50;;;;;;;21.62;83.42;100193.38;6110766;23;20025;-66
2023/07/12 00:46:49;;;;;;;5.85;5.55;;;;;;;21.59;83.03;100182.19;6119183;23;20044;-67
2023/07/12 00:49:16;;;;;;;5.80;5.50;;;;;;;20.17;82.84;99978.34;6116423;23;20074;-66
2023/07/12 00:51:55;;;;;;;5.80;5.50;;;;;;;21.42;84.25;100183.97;6061841;23;20074;-65
2023/07/12 00:54:26;;;;;;;5.80;5.35;;;;;;;21.52;83.84;100203.38;6112734;23;20658;-66
2023/07/12 00:56:53;;;;;;;5.97;5.68;;;;;;;21.24;84.57;100184.09;6112518;23;20059;-66
2023/07/12 00:59:26;;;;;;;6.03;5.53;;;;;;;21.26;85.70;100198.09;6084513;23;20456;-66
2023/07/12 01:01:58;;;;;;;6.20;5.60;;;;;;;21.43;87.49;100258.59;6112399;23;20037;-66
2023/07/12 01:04:37;;;;;;;6.03;5.63;;;;;;;21.36;89.34;100275.38;6114038;23;20021;-66
2023/07/12 01:07:04;;;;;;;7.20;6.80;;;;;;;21.14;91.62;100290.13;6086745;23;20025;-65
2023/07/12 01:09:32;;;;;;;6.07;5.63;;;;;;;20.94;96.52;100309.00;6083093;23;20014;-66
2023/07/12 01:11:59;;;;;;;6.30;5.90;;;;;;;20.79;99.70;100282.09;6116325;23;20017;-66
2023/07/12 01:14:26;;;;;;;6.07;5.68;;;;;;;20.64;100.00;100310.28;6079249;23;20026;-68
2023/07/12 01:16:57;;;;;;;6.15;5.55;;;;;;;20.23;100.00;100286.78;6115091;23;20093;-66
2023/07/12 01:19:24;;;;;;;6.05;5.75;;;;;;;20.46;100.00;100355.59;6109481;23;20029;-66
2023/07/12 01:21:53;;;;;;;6.00;5.45;;;;;;;20.31;100.00;100334.81;6114358;23;20141;-66
2023/07/12 01:24:20;;;;;;;6.25;5.82;;;;;;;20.10;100.00;100326.28;6112406;23;20542;-66
2023/07/12 01:26:49;;;;;;;5.85;5.55;;;;;;;19.82;100.00;100302.34;6109987;23;20623;-66
2023/07/12 01:29:16;;;;;;;6.50;6.10;;;;;;;20.03;100.00;100344.69;6109214;23;20116;-69
2023/07/12 01:31:44;;;;;;;6.07;5.78;;;;;;;19.98;100.00;100356.78;6111814;23;20056;-66
2023/07/12 01:34:12;;;;;;;5.93;5.63;;;;;;;19.69;100.00;100310.66;6113344;23;20791;-66
2023/07/12 01:36:39;;;;;;;6.60;6.20;;;;;;;19.70;100.00;100331.00;6113204;23;20114;-65
2023/07/12 01:39:05;;;;;;;6.13;5.72;;;;;;;19.90;100.00;100376.16;6114150;23;20033;-65
2023/07/12 01:41:32;;;;;;;6.55;6.05;;;;;;;19.70;100.00;100372.72;6092423;23;20421;-65
2023/07/12 01:43:59;;;;;;;7.40;6.07;;;;;;;19.72;100.00;100398.28;6111321;23;20654;-65
2023/07/12 01:46:26;;;;;;;7.45;6.05;;;;;;;19.72;100.00;100394.75;6110527;23;20073;-66
2023/07/12 01:48:53;;;;;;;6.70;6.30;;;;;;;19.71;100.00;100403.75;6110046;23;20589;-66
2023/07/12 01:51:20;;;;;;;6.80;6.40;;;;;;;19.79;100.00;100432.31;6083342;23;20021;-66
2023/07/12 01:53:47;;;;;;;5.90;5.60;;;;;;;19.35;100.00;100376.94;6111561;23;20018;-65
2023/07/12 01:56:15;;;;;;;6.30;5.75;;;;;;;19.35;100.00;100424.84;6113594;23;20025;-65
2023/07/12 01:58:42;;;;;;;6.50;6.05;;;;;;;19.41;100.00;100432.25;6091497;23;20024;-65
2023/07/12 02:01:09;;;;;;;6.95;6.43;;;;;;;19.35;100.00;100439.97;6115236;23;20026;-65
2023/07/12 02:03:35;;;;;;;6.55;6.15;;;;;;;19.40;100.00;100432.38;6089465;23;20094;-65
2023/07/12 02:06:02;;;;;;;7.13;5.88;;;;;;;19.38;100.00;100424.53;6113788;23;20051;-67
2023/07/12 02:08:29;;;;;;;6.05;5.68;;;;;;;19.46;100.00;100432.63;6083446;23;20425;-67
2023/07/12 02:10:55;;;;;;;6.97;6.22;;;;;;;19.45;100.00;100441.59;6109945;23;20029;-67
2023/07/12 02:13:23;;;;;;;6.68;6.20;;;;;;;19.42;100.00;100433.91;6109906;23;20029;-66
2023/07/12 02:15:50;;;;;;;5.90;5.60;;;;;;;18.86;100.00;100373.53;6108197;23;20025;-65
2023/07/12 02:18:18;;;;;;;6.45;6.05;;;;;;;19.34;100.00;100452.41;6112884;23;20021;-67
2023/07/12 02:20:44;;;;;;;6.28;5.82;;;;;;;19.28;100.00;100471.59;6107839;23;20318;-69
2023/07/12 02:23:11;;;;;;;6.47;6.03;;;;;;;19.20;100.00;100463.50;6082842;23;20056;-66
2023/07/12 02:25:39;;;;;;;6.53;6.18;;;;;;;19.01;100.00;100435.94;6116364;23;20185;-67
2023/07/12 02:28:05;;;;;;;7.03;6.43;;;;;;;18.71;100.00;100397.03;6112855;23;20017;-66
2023/07/12 02:30:33;;;;;;;6.65;6.25;;;;;;;19.29;100.00;100500.75;6111004;23;20033;-66
2023/07/12 02:32:59;;;;;;;5.90;5.60;;;;;;;19.29;100.00;100497.25;6110407;23;20134;-66
2023/07/12 02:35:31;;;;;;;6.78;6.18;;;;;;;19.35;100.00;100512.66;6072471;23;20055;-66
2023/07/12 02:37:59;;;;;;;6.10;5.80;;;;;;;19.40;100.00;100509.56;6112273;23;20025;-66
2023/07/12 02:40:27;;;;;;;6.57;6.00;;;;;;;19.40;100.00;100507.72;6111799;23;20021;-66
2023/07/12 02:42:54;;;;;;;10.93;6.00;;;;;;;19.34;100.00;100513.59;6106710;23;20045;-66
2023/07/12 02:45:20;;;;;;;7.25;6.65;;;;;;;19.35;100.00;100522.47;6106512;23;20123;-65
2023/07/12 02:47:47;;;;;;;6.60;6.00;;;;;;;19.30;100.00;100534.38;6109441;23;20025;-66
2023/07/12 02:50:14;;;;;;;6.07;5.68;;;;;;;19.31;100.00;100527.22;6112261;23;20287;-67
2023/07/12 02:52:40;;;;;;;6.38;5.85;;;;;;;19.11;100.00;100516.56;6110154;23;20168;-65
2023/07/12 02:55:07;;;;;;;7.35;5.95;;;;;;;19.11;100.00;100519.22;6112854;23;20017;-65
2023/07/12 02:57:33;;;;;;;6.20;5.80;;;;;;;19.10;100.00;100522.03;6107923;23;20029;-67
2023/07/12 03:00:00;;;;;;;6.50;6.13;;;;;;;18.99;100.00;100503.56;6112680;23;20035;-66
2023/07/12 03:02:30;;;;;;;6.03;5.63;;;;;;;18.79;100.00;100484.91;6089721;23;20682;-65
2023/07/12 03:04:56;;;;;;;6.60;6.18;;;;;;;18.56;100.00;100454.22;6110880;23;20597;-66
2023/07/12 03:07:23;;;;;;;6.00;5.70;;;;;;;18.63;100.00;100458.84;6108815;23;20408;-66
2023/07/12 03:09:55;;;;;;;6.57;5.97;;;;;;;18.58;100.00;100455.75;6108286;23;20252;-65
2023/07/12 03:12:21;;;;;;;6.22;5.70;;;;;;;18.23;100.00;100446.47;6107332;23;20010;-66
2023/07/12 03:14:47;;;;;;;6.40;6.00;;;;;;;17.79;100.00;100403.38;6102660;23;20637;-66
2023/07/12 03:17:14;;;;;;;6.57;5.40;;;;;;;17.81;100.00;100403.25;6111223;23;20528;-66
2023/07/12 03:19:40;;;;;;;6.40;6.00;;;;;;;18.04;100.00;100472.94;6084290;23;20562;-66
2023/07/12 03:22:06;;;;;;;6.10;5.70;;;;;;;17.99;100.00;100483.16;6108382;23;20104;-66
2023/07/12 03:24:33;;;;;;;5.85;5.55;;;;;;;17.63;100.00;100434.88;6109846;23;20088;-65
2023/07/12 03:26:59;;;;;;;6.53;5.72;;;;;;;17.80;100.00;100476.75;6105465;23;20750;-66
2023/07/12 03:29:26;;;;;;;5.78;5.47;;;;;;;17.81;100.00;100473.09;6108907;23;20021;-66
2023/07/12 03:31:53;;;;;;;5.78;5.38;;;;;;;17.63;100.00;100467.56;6104576;23;20448;-65
2023/07/12 03:34:19;;;;;;;5.53;5.22;;;;;;;17.77;100.00;100487.63;6111509;23;20013;-68
2023/07/12 03:36:45;;;;;;;6.60;5.70;;;;;;;17.44;100.00;100440.91;6111177;23;20097;-66
2023/07/12 03:39:12;;;;;;;5.90;5.60;;;;;;;16.91;100.00;100364.94;6108541;23;20022;-66
2023/07/12 03:41:38;;;;;;;5.85;5.55;;;;;;;17.78;100.00;100499.06;6091479;23;20036;-66
2023/07/12 03:44:05;;;;;;;5.90;5.50;;;;;;;17.69;100.00;100482.13;6109743;23;20617;-65
2023/07/12 03:46:31;;;;;;;5.65;5.25;;;;;;;17.76;100.00;100493.91;6106841;23;20660;-65
2023/07/12 03:48:57;;;;;;;6.10;5.80;;;;;;;17.87;100.00;100501.81;6109380;23;20047;-67
2023/07/12 03:51:24;;;;;;;5.63;5.32;;;;;;;17.91;100.00;100505.03;6082924;23;20046;-65
2023/07/12 03:53:50;;;;;;;5.80;5.50;;;;;;;17.97;100.00;100519.63;6107430;23;20222;-65
2023/07/12 03:56:17;;;;;;;5.60;5.30;;;;;;;17.81;100.00;100478.41;6083751;23;20519;-65
2023/07/12 03:58:43;;;;;;;6.10;5.70;;;;;;;17.78;100.00;100488.44;6102439;23;20036;-65
2023/07/12 04:01:11;;;;;;;5.63;5.32;;;;;;;17.82;100.00;100500.50;6106177;23;20026;-65
2023/07/12 04:03:39;;;;;;;5.70;5.40;;;;;;;17.80;100.00;100508.59;6079459;23;20030;-66
2023/07/12 04:06:07;;;;;;;5.35;5.10;;;;;;;17.86;100.00;100504.59;6111402;23;20025;-65
2023/07/12 04:08:34;;;;;;;5.65;5.35;;;;;;;17.78;100.00;100491.97;6081275;23;20034;-65
2023/07/12 04:11:04;;;;;;;5.70;5.40;;;;;;;17.77;100.00;100498.25;6111186;23;20045;-65
2023/07/12 04:13:31;;;;;;;5.68;5.32;;;;;;;17.67;100.00;100502.66;6090085;23;20014;-65
2023/07/12 04:15:59;;;;;;;5.50;5.20;;;;;;;17.09;100.00;100411.09;6115290;23;20515;-67
2023/07/12 04:18:26;;;;;;;5.43;5.13;;;;;;;17.58;100.00;100508.72;6112899;23;20789;-66
2023/07/12 04:20:54;;;;;;;5.70;5.30;;;;;;;17.66;100.00;100517.75;6109989;23;20037;-64
2023/07/12 04:23:21;;;;;;;5.40;4.93;;;;;;;17.45;100.00;100464.66;6111677;23;20025;-64
2023/07/12 04:25:56;;;;;;;5.35;5.15;;;;;;;17.43;100.00;100450.69;6107255;23;20097;-65
2023/07/12 04:28:22;;;;;;;5.63;5.32;;;;;;;17.76;100.00;100517.81;6082587;23;20542;-65
2023/07/12 04:30:49;;;;;;;5.50;5.20;;;;;;;17.56;100.00;100487.66;6115007;23;20028;-65
2023/07/12 04:33:15;;;;;;;5.35;5.07;;;;;;;17.72;100.00;100542.91;6117707;23;20763;-65
2023/07/12 04:35:41;;;;;;;5.63;5.32;;;;;;;17.03;100.00;100435.50;6108760;23;20029;-65
2023/07/12 04:38:08;;;;;;;5.97;5.57;;;;;;;17.81;100.00;100544.78;6065582;23;20013;-65
2023/07/12 04:40:34;;;;;;;5.65;5.35;;;;;;;17.89;100.00;100538.84;6108502;23;20066;-65
2023/07/12 04:43:01;;;;;;;5.82;5.53;;;;;;;17.53;100.00;100467.50;6111895;23;20271;-65
2023/07/12 04:45:27;;;;;;;6.22;5.30;;;;;;;18.06;100.00;100509.03;6113067;23;20656;-65
2023/07/12 04:47:53;;;;;;;6.07;5.68;;;;;;;18.37;100.00;100537.41;6105713;23;20094;-65
2023/07/12 04:50:20;;;;;;;5.80;5.50;;;;;;;18.45;100.00;100527.78;6110776;23;20121;-65
2023/07/12 04:52:47;;;;;;;5.57;5.28;;;;;;;18.52;100.00;100523.59;6113505;23;20029;-64
2023/07/12 04:55:25;;;;;;;5.78;5.28;;;;;;;18.58;100.00;100506.25;6112601;23;20037;-66
2023/07/12 04:57:52;;;;;;;5.63;5.32;;;;;;;17.70;100.00;100354.63;6108423;23;20621;-65
2023/07/12 05:00:18;;;;;;;5.80;5.50;;;;;;;18.77;100.00;100516.09;6110630;23;20428;-66
2023/07/12 05:02:46;;;;;;;5.72;5.43;;;;;;;18.51;100.00;100481.22;6111725;23;20018;-66
2023/07/12 05:05:13;;;;;;;5.65;5.35;;;;;;;18.77;100.00;100512.59;6111721;23;20037;-65
2023/07/12 05:07:40;;;;;;;5.50;5.20;;;;;;;17.91;100.00;100364.34;6091258;23;20009;-66
2023/07/12 05:10:08;;;;;;;5.93;5.63;;;;;;;19.02;100.00;100533.34;6090206;23;20478;-66
2023/07/12 05:12:36;;;;;;;5.88;5.57;;;;;;;19.10;100.00;100484.78;6087779;23;20024;-66
2023/07/12 05:15:04;;;;;;;5.90;5.60;;;;;;;19.58;100.00;100510.50;6112375;23;21113;-66
2023/07/12 05:17:30;;;;;;;5.95;5.55;;;;;;;19.24;100.00;100515.44;6081832;23;20075;-65
2023/07/12 05:19:57;;;;;;;5.72;5.43;;;;;;;19.06;100.00;100516.16;6100859;23;20526;-65
2023/07/12 05:22:23;;;;;;;6.05;5.65;;;;;;;19.08;100.00;100529.31;6113399;23;20100;-65
2023/07/12 05:24:50;;;;;;;5.85;5.47;;;;;;;18.94;100.00;100525.22;6109564;23;20084;-67
2023/07/12 05:27:16;;;;;;;5.45;5.22;;;;;;;18.78;100.00;100530.22;6111263;23;20031;-64
2023/07/12 05:29:43;;;;;;;13.15;5.60;;;;;;;18.72;100.00;100532.47;6112720;23;20029;-64
2023/07/12 05:32:09;;;;;;;5.60;5.30;;;;;;;18.70;100.00;100550.38;6114561;23;20033;-65
2023/07/12 05:34:36;;;;;;;5.60;5.30;;;;;;;18.80;100.00;100576.16;6108694;23;20946;-65
2023/07/12 05:37:04;;;;;;;6.22;5.65;;;;;;;18.76;100.00;100582.69;6089171;23;20026;-65
2023/07/12 05:39:30;;;;;;;5.72;5.28;;;;;;;18.07;100.00;100501.91;6109343;23;20671;-63
2023/07/12 05:41:57;;;;;;;5.60;5.30;;;;;;;18.55;100.00;100583.59;6082134;23;20029;-64
2023/07/12 05:44:23;;;;;;;5.65;5.25;;;;;;;18.10;100.00;100514.91;6112104;23;20028;-65
2023/07/12 05:46:50;;;;;;;5.55;5.25;;;;;;;18.20;100.00;100541.50;6111094;23;20028;-66
2023/07/12 05:49:16;;;;;;;5.80;5.30;;;;;;;18.43;100.00;100592.66;6086971;23;20078;-64
2023/07/12 05:51:43;;;;;;;5.60;5.10;;;;;;;17.70;100.00;100497.06;6112614;23;20268;-65
2023/07/12 05:54:09;;;;;;;5.60;5.30;;;;;;;18.16;100.00;100596.69;6090654;23;20013;-64
2023/07/12 05:56:38;;;;;;;6.15;5.65;;;;;;;18.20;100.00;100616.75;6110854;23;20133;-66
2023/07/12 05:59:04;;;;;;;5.68;5.38;;;;;;;17.81;100.00;100555.41;6113643;23;20028;-65
2023/07/12 06:01:30;;;;;;;5.70;5.40;;;;;;;18.18;100.00;100610.72;6107751;23;20021;-65
2023/07/12 06:03:57;;;;;;;5.85;5.38;;;;;;;18.13;100.00;100607.59;6111712;23;20025;-65
2023/07/12 06:06:23;;;;;;;5.80;5.40;;;;;;;17.95;100.00;100551.59;6108902;23;20119;-65
2023/07/12 06:08:50;;;;;;;6.22;5.82;;;;;;;18.36;100.00;100608.28;6107163;23;20021;-66
2023/07/12 06:11:19;;;;;;;5.70;5.40;;;;;;;18.95;100.00;100616.50;6111363;23;20503;-65
2023/07/12 06:13:45;;;;;;;5.80;5.40;;;;;;;19.70;100.00;100618.53;6113495;23;20018;-65
2023/07/12 06:16:12;;;;;;;5.60;5.30;;;;;;;20.00;96.74;100530.59;6107362;23;20032;-65
2023/07/12 06:18:38;;;;;;;5.90;5.60;;;;;;;20.57;91.48;100538.47;6109566;23;20029;-66
2023/07/12 06:21:08;;;;;;;6.05;5.50;;;;;;;20.75;87.25;100509.22;6108863;23;20617;-65
2023/07/12 06:23:35;;;;;;;6.20;5.70;;;;;;;20.60;85.43;100485.72;6113886;23;20780;-65
2023/07/12 06:26:01;;;;;;;5.90;5.57;;;;;;;20.12;87.43;100481.47;6106859;23;20475;-67
2023/07/12 06:28:28;;;;;;;5.93;5.57;;;;;;;20.20;88.22;100502.91;6065445;23;20022;-65
2023/07/12 06:30:55;;;;;;;5.82;5.53;;;;;;;19.93;89.56;100477.91;6112004;23;20002;-67
2023/07/12 06:33:21;;;;;;;5.82;5.38;;;;;;;19.56;88.15;100405.97;6079023;23;20885;-65
2023/07/12 06:35:48;;;;;;;5.63;5.35;;;;;;;20.30;86.95;100479.69;6111780;23;20029;-65
2023/07/12 06:38:16;;;;;;;5.95;5.57;;;;;;;20.60;86.80;100501.72;6108879;23;20092;-66
2023/07/12 06:40:45;;;;;;;6.07;5.68;;;;;;;20.99;85.66;100500.63;6108396;23;20768;-67
2023/07/12 06:43:12;;;;;;;5.97;5.50;;;;;;;21.12;81.79;100434.38;6084588;23;20024;-65
2023/07/12 06:45:43;;;;;;;5.78;5.47;;;;;;;21.07;82.46;100458.84;6088653;23;21586;-65
2023/07/12 06:48:10;;;;;;;6.10;5.60;;;;;;;21.33;82.24;100468.72;6106108;23;20536;-65
2023/07/12 06:50:36;;;;;;;6.03;5.72;;;;;;;21.64;81.72;100455.75;6077539;23;20020;-64
2023/07/12 06:53:02;;;;;;;6.80;6.32;;;;;;;21.52;77.50;100371.59;6108698;23;20115;-65
2023/07/12 06:55:29;;;;;;;5.93;5.63;;;;;;;21.31;77.01;100371.97;6113088;23;20041;-65
2023/07/12 06:57:57;;;;;;;6.20;5.80;;;;;;;21.38;77.71;100396.19;6107851;23;20037;-65
2023/07/12 07:00:24;;;;;;;5.82;5.53;;;;;;;21.01;75.33;100285.22;6108304;23;20045;-65
2023/07/12 07:02:50;;;;;;;5.88;5.57;;;;;;;21.20;75.86;100354.34;6110302;23;20089;-65
2023/07/12 07:05:17;;;;;;;6.05;5.65;;;;;;;21.22;75.53;100344.38;6112228;23;20023;-65
2023/07/12 07:07:43;;;;;;;5.95;5.45;;;;;;;21.05;75.79;100340.78;6113171;23;20063;-65
2023/07/12 07:10:10;;;;;;;6.38;5.80;;;;;;;21.02;75.82;100340.25;6107715;23;20517;-65
2023/07/12 07:12:36;;;;;;;6.13;5.63;;;;;;;20.89;74.33;100308.66;6081013;23;20014;-65
2023/07/12 07:15:03;;;;;;;6.63;6.05;;;;;;;20.77;73.90;100294.75;6107380;23;20091;-65
2023/07/12 07:17:32;;;;;;;6.28;5.50;;;;;;;20.43;74.42;100239.47;6083525;23;20377;-65
2023/07/12 07:20:00;;;;;;;6.55;5.70;;;;;;;20.96;75.13;100349.69;6083221;23;20466;-65
2023/07/12 07:22:27;;;;;;;6.10;5.70;;;;;;;20.80;74.30;100298.91;6087991;23;20660;-64
2023/07/12 07:24:53;;;;;;;6.30;5.80;;;;;;;20.83;72.28;100269.28;6107166;23;20029;-65
2023/07/12 07:27:20;;;;;;;6.28;5.65;;;;;;;20.96;70.90;100255.50;6108308;23;20020;-65
2023/07/12 07:29:46;;;;;;;5.75;5.45;;;;;;;20.84;70.58;100228.25;6066569;23;20315;-64
2023/07/12 07:32:13;;;;;;;5.80;5.50;;;;;;;20.97;68.28;100178.00;6100409;23;20100;-65
2023/07/12 07:34:40;;;;;;;6.10;5.70;;;;;;;21.16;67.47;100178.72;6112532;23;20009;-65
2023/07/12 07:37:06;;;;;;;6.20;5.80;;;;;;;21.21;67.29;100211.06;6103984;23;20062;-64
2023/07/12 07:39:32;;;;;;;6.38;5.90;;;;;;;21.02;66.41;100126.81;6103364;23;20637;-64
2023/07/12 07:42:01;;;;;;;6.75;6.15;;;;;;;21.28;64.59;100108.03;6107076;23;20033;-65
2023/07/12 07:44:28;;;;;;;5.80;5.50;;;;;;;20.40;65.12;100020.38;6106884;23;20598;-65
2023/07/12 07:46:54;;;;;;;5.97;5.65;;;;;;;21.50;66.45;100200.84;6110505;23;20591;-65
2023/07/12 07:49:21;;;;;;;5.75;5.45;;;;;;;21.24;67.66;100224.94;6107314;23;20017;-65
2023/07/12 07:51:47;;;;;;;6.10;5.50;;;;;;;21.60;66.67;100203.38;6079304;23;20084;-65
2023/07/12 07:54:14;;;;;;;5.70;5.35;;;;;;;21.52;65.33;100158.81;6109741;23;20667;-65
2023/07/12 07:56:41;;;;;;;6.03;5.65;;;;;;;21.12;66.11;100138.19;6108770;23;20014;-65
2023/07/12 07:59:08;;;;;;;6.43;6.13;;;;;;;21.30;66.27;100183.44;6073387;23;20080;-65
2023/07/12 08:01:34;;;;;;;5.85;5.40;;;;;;;21.36;65.01;100145.41;6103954;23;20084;-65
2023/07/12 08:04:18;;;;;;;5.80;5.50;;;;;;;21.42;62.66;100091.34;6107817;23;20288;-65
2023/07/12 08:06:45;;;;;;;5.70;5.40;;;;;;;21.00;63.53;100070.94;6107525;23;20140;-65
2023/07/12 08:09:11;;;;;;;6.13;5.60;;;;;;;21.50;62.25;100098.56;6111971;23;20033;-66
2023/07/12 08:11:38;;;;;;;5.70;5.40;;;;;;;21.78;60.42;100064.34;6076362;23;20049;-65
2023/07/12 08:14:05;;;;;;;6.07;5.78;;;;;;;21.63;61.24;100074.03;6105220;23;20033;-64
2023/07/12 08:16:33;;;;;;;5.80;5.50;;;;;;;22.02;61.45;100124.13;6107721;23;20300;-65
2023/07/12 08:19:00;;;;;;;6.13;5.82;;;;;;;22.50;61.24;100175.88;6107325;23;20619;-64
2023/07/12 08:21:37;;;;;;;6.18;5.60;;;;;;;22.81;60.32;100151.88;6057001;23;20064;-64
2023/07/12 08:24:03;;;;;;;6.40;6.00;;;;;;;22.59;60.76;100150.78;6112097;23;20576;-64
2023/07/12 08:26:30;;;;;;;6.28;5.88;;;;;;;22.33;60.29;100144.81;6106320;23;20044;-64
2023/07/12 08:28:57;;;;;;;6.40;6.10;;;;;;;22.40;61.73;100175.22;6106010;23;20400;-64
2023/07/12 08:31:23;;;;;;;6.00;5.57;;;;;;;22.51;60.76;100182.88;6109225;23;20081;-65
2023/07/12 08:33:49;;;;;;;6.10;5.80;;;;;;;22.56;58.97;100137.75;6107040;23;20107;-65
2023/07/12 08:36:16;;;;;;;6.25;5.90;;;;;;;22.42;59.07;100123.22;6105650;23;20411;-65
2023/07/12 08:38:43;;;;;;;6.00;5.70;;;;;;;22.17;58.97;100070.81;6109669;23;20157;-64
2023/07/12 08:41:16;;;;;;;6.40;5.80;;;;;;;22.24;55.90;99975.59;6109536;23;20027;-64
2023/07/12 08:43:43;;;;;;;5.78;5.50;;;;;;;22.36;57.98;100120.41;6107022;23;20770;-64
2023/07/12 08:46:17;;;;;;;5.88;5.57;;;;;;;21.31;57.15;99894.19;6108070;23;20046;-64
2023/07/12 08:48:44;;;;;;;6.20;5.90;;;;;;;22.87;55.80;100068.25;6082949;23;20030;-65
2023/07/12 08:51:18;;;;;;;7.00;6.60;;;;;;;22.78;56.37;100121.94;6094461;23;20477;-65
2023/07/12 08:53:45;;;;;;;5.97;5.57;;;;;;;22.60;56.08;100074.88;6108791;23;20032;-65
2023/07/12 08:56:14;;;;;;;6.45;5.90;;;;;;;22.68;56.93;100138.22;6112569;23;20550;-64
2023/07/12 08:58:50;;;;;;;5.95;5.55;;;;;;;22.62;56.70;100112.16;6113379;23;20009;-65
2023/07/12 09:01:45;;;;;;;5.60;5.30;;;;;;;22.86;56.46;100170.91;6113287;23;20566;-65
2023/07/12 09:04:23;;;;;;;5.60;5.30;;;;;;;22.99;55.25;100132.91;6108865;23;20010;-65
2023/07/12 09:06:53;;;;;;;6.55;6.15;;;;;;;23.01;56.77;100204.97;6083424;23;20085;-65
2023/07/12 09:09:20;;;;;;;6.07;5.53;;;;;;;23.03;55.74;100138.75;6113034;23;20013;-65
2023/07/12 09:11:47;;;;;;;5.97;5.57;;;;;;;23.08;56.74;100216.69;6086747;23;20049;-65
2023/07/12 09:14:19;;;;;;;8.20;5.78;;;;;;;22.96;56.36;100175.22;6114097;23;20060;-66
2023/07/12 09:16:48;;;;;;;6.50;5.88;;;;;;;23.35;55.33;100164.50;6105051;23;20032;-65
2023/07/12 09:19:27;;;;;;;5.68;5.38;;;;;;;22.77;55.41;100096.19;6090352;23;20024;-65
2023/07/12 09:22:00;;;;;;;5.72;5.43;;;;;;;23.38;56.01;100236.47;6112044;23;20033;-64
2023/07/12 09:24:31;;;;;;;6.43;5.80;;;;;;;23.87;56.63;100319.31;6111793;23;20048;-64
2023/07/12 09:27:06;;;;;;;7.00;5.93;;;;;;;23.81;53.67;100150.31;6110176;23;20029;-64
2023/07/12 09:29:35;;;;;;;6.20;5.80;;;;;;;23.56;53.92;100109.50;6108865;23;20037;-65
2023/07/12 09:32:31;;;;;;;6.10;5.80;;;;;;;24.20;52.77;100171.59;6113273;23;20084;-65
2023/07/12 09:34:58;;;;;;;6.20;5.65;;;;;;;24.55;52.55;100188.03;6097694;23;20099;-64
2023/07/12 09:37:25;;;;;;;9.20;6.18;;;;;;;24.37;51.03;100078.41;6109928;23;20449;-64
2023/07/12 09:39:58;;;;;;;5.95;5.65;;;;;;;23.72;50.45;99971.88;6108529;23;20025;-65
2023/07/12 09:42:27;;;;;;;5.97;5.57;;;;;;;24.10;52.29;100163.00;6105947;23;20021;-65
2023/07/12 09:44:56;;;;;;;8.05;5.90;;;;;;;23.70;51.78;100095.31;6113722;23;20409;-64
2023/07/12 09:47:41;;;;;;;6.72;5.70;;;;;;;24.51;50.41;100130.41;6112886;23;20028;-65
2023/07/12 09:50:21;;;;;;;6.22;5.82;;;;;;;24.28;49.77;100080.34;6112526;23;20029;-65
2023/07/12 09:53:19;;;;;;;6.38;5.90;;;;;;;24.45;50.84;100174.88;6086949;23;20014;-65
2023/07/12 09:55:58;;;;;;;10.43;6.03;;;;;;;24.56;50.78;100170.13;6093030;23;20033;-64
2023/07/12 09:58:53;;;;;;;5.82;5.53;;;;;;;24.35;50.88;100158.22;6110464;23;20018;-65
2023/07/12 10:01:46;;;;;;;5.80;5.43;;;;;;;24.39;50.48;100134.53;6110054;23;20093;-65
2023/07/12 10:04:50;;;;;;;5.60;5.30;;;;;;;22.80;52.01;99949.53;6110600;23;21243;-65
2023/07/12 10:07:42;;;;;;;8.23;5.40;;;;;;;24.24;51.37;100183.63;6092512;23;20021;-65
2023/07/12 10:10:21;;;;;;;6.07;5.65;;;;;;;24.19;50.54;100140.44;6111114;23;20017;-65
2023/07/12 10:12:58;;;;;;;6.30;5.80;;;;;;;23.52;49.98;99999.19;6110712;23;20080;-65
2023/07/12 10:15:28;;;;;;;6.15;5.65;;;;;;;24.24;51.71;100170.22;6112037;23;20648;-65
2023/07/12 10:17:55;;;;;;;5.90;5.60;;;;;;;24.21;51.94;100183.16;6088761;23;20032;-65
2023/07/12 10:20:24;;;;;;;6.00;5.60;;;;;;;24.04;52.97;100266.41;6112370;23;20014;-67
2023/07/12 10:22:53;;;;;;;7.07;5.75;;;;;;;23.82;53.22;100206.44;6110503;23;20032;-65
2023/07/12 10:25:31;;;;;;;6.00;5.70;;;;;;;23.79;52.91;100213.97;6111958;23;20032;-66
2023/07/12 10:28:05;;;;;;;5.93;5.55;;;;;;;24.18;53.02;100272.03;6105169;23;20519;-65
2023/07/12 10:30:33;;;;;;;5.68;5.20;;;;;;;24.27;52.67;100228.84;6084048;23;20029;-65
2023/07/12 10:33:23;;;;;;;6.07;5.50;;;;;;;24.03;52.25;100207.59;6108821;23;20093;-65
2023/07/12 10:36:01;;;;;;;5.95;5.35;;;;;;;23.62;52.68;100186.44;6111313;23;20060;-65
2023/07/12 10:38:28;;;;;;;5.57;5.28;;;;;;;23.67;53.20;100187.59;6109629;23;20025;-65
2023/07/12 10:41:00;;;;;;;5.85;5.45;;;;;;;24.31;52.65;100287.50;6112582;23;20037;-65
2023/07/12 10:43:39;;;;;;;5.47;5.17;;;;;;;24.37;50.44;100150.00;6111430;23;20091;-65
2023/07/12 10:46:49;;;;;;;5.80;5.40;;;;;;;25.36;48.78;100240.97;6083199;23;21389;-65
2023/07/12 10:49:20;;;;;;;5.72;5.10;;;;;;;25.09;47.65;100074.97;6105371;23;20095;-65
2023/07/12 10:52:07;;;;;;;5.40;5.10;;;;;;;25.22;47.73;100149.53;6085963;23;20564;-65
2023/07/12 10:54:39;;;;;;;5.70;5.40;;;;;;;25.35;46.57;100081.69;6114588;23;20244;-65
2023/07/12 10:57:27;;;;;;;6.00;5.60;;;;;;;24.84;46.90;100031.56;6086962;23;20083;-65
2023/07/12 11:00:00;;;;;;;6.00;5.30;;;;;;;24.75;46.94;100029.19;6066960;23;20006;-65
2023/07/12 11:02:31;;;;;;;5.50;5.20;;;;;;;25.01;47.66;100111.84;6116112;23;20032;-66
2023/07/12 11:04:59;;;;;;;5.85;5.40;;;;;;;25.17;47.23;100133.09;6107393;23;20029;-66
2023/07/12 11:07:32;;;;;;;5.28;5.07;;;;;;;25.64;45.69;100090.66;6105386;23;20076;-65
2023/07/12 11:10:06;;;;;;;6.00;5.50;;;;;;;25.81;45.49;100126.13;6107758;23;20065;-66
2023/07/12 11:12:39;;;;;;;5.95;5.55;;;;;;;25.48;44.71;100022.72;6111803;23;20408;-66
2023/07/12 11:15:18;;;;;;;5.60;5.32;;;;;;;24.51;44.76;99905.09;6082231;23;20025;-66
2023/07/12 11:17:48;;;;;;;5.50;5.20;;;;;;;25.78;44.97;100130.03;6108178;23;20033;-65
2023/07/12 11:20:26;;;;;;;5.50;5.20;;;;;;;25.65;44.58;100086.91;6110280;23;20037;-65
2023/07/12 11:22:57;;;;;;;7.28;5.57;;;;;;;25.83;44.85;100142.91;6108014;23;20096;-65
2023/07/12 11:25:57;;;;;;;5.70;5.40;;;;;;;25.85;45.05;100136.28;6108233;23;20084;-65
2023/07/12 11:28:29;;;;;;;5.97;5.40;;;;;;;25.71;45.12;100144.44;6108868;23;20060;-64
2023/07/12 11:31:23;;;;;;;5.43;5.13;;;;;;;25.57;44.91;100111.25;6110034;23;20063;-65
2023/07/12 11:33:55;;;;;;;5.53;5.13;;;;;;;25.67;45.55;100165.50;6115040;23;20052;-65